createdAt,value
2023-05-14T00:01:36.284Z,11.55
2023-05-14T00:04:04.409Z,11.52
2023-05-14T00:06:31.892Z,11.46
2023-05-14T00:08:58.788Z,11.43
2023-05-14T00:11:26.109Z,11.42
2023-05-14T00:13:53.068Z,11.37
2023-05-14T00:16:20.311Z,11.35
2023-05-14T00:18:47.378Z,11.33
2023-05-14T00:21:14.699Z,11.29
2023-05-14T00:23:41.572Z,11.24
2023-05-14T00:26:08.927Z,11.21
2023-05-14T00:28:35.835Z,11.18
2023-05-14T00:31:03.339Z,11.14
2023-05-14T00:33:31.035Z,11.15
2023-05-14T00:35:58.448Z,11.12
2023-05-14T00:38:27.651Z,11.06
2023-05-14T00:40:54.926Z,11.05
2023-05-14T00:43:22.836Z,11.02
2023-05-14T00:45:52.525Z,10.98
2023-05-14T00:48:21.491Z,10.97
2023-05-14T00:50:51.000Z,10.91
2023-05-14T00:53:21.499Z,10.89
2023-05-14T00:55:50.521Z,10.83
2023-05-14T00:58:19.340Z,10.79
2023-05-14T01:00:46.877Z,10.74
2023-05-14T01:03:14.024Z,10.70
2023-05-14T01:06:13.242Z,10.56
2023-05-14T01:09:12.481Z,10.47
2023-05-14T01:12:02.754Z,10.44
2023-05-14T01:14:40.979Z,10.47
2023-05-14T01:17:13.074Z,10.42
2023-05-14T01:19:45.354Z,10.39
2023-05-14T01:22:13.134Z,10.37
2023-05-14T01:24:40.617Z,10.29
2023-05-14T01:27:35.600Z,10.26
2023-05-14T01:30:10.221Z,10.24
2023-05-14T01:32:39.614Z,10.26
2023-05-14T01:35:09.332Z,10.21
2023-05-14T01:37:38.784Z,10.16
2023-05-14T01:40:08.066Z,10.14
2023-05-14T01:42:36.224Z,10.11
2023-05-14T01:45:03.689Z,10.09
2023-05-14T01:47:30.966Z,10.02
2023-05-14T01:49:57.968Z,10.00
2023-05-14T01:52:25.261Z,9.97
2023-05-14T01:54:52.502Z,9.96
2023-05-14T01:57:19.766Z,9.91
2023-05-14T01:59:46.737Z,9.85
2023-05-14T02:02:14.456Z,9.81
2023-05-14T02:04:42.150Z,9.80
2023-05-14T02:07:09.333Z,9.77
2023-05-14T02:09:36.343Z,9.72
2023-05-14T02:12:04.099Z,9.67
2023-05-14T02:14:31.355Z,9.65
2023-05-14T02:16:58.613Z,9.61
2023-05-14T02:19:25.593Z,9.56
2023-05-14T02:21:52.766Z,9.54
2023-05-14T02:24:19.770Z,9.50
2023-05-14T02:26:47.244Z,9.45
2023-05-14T02:29:14.130Z,9.39
2023-05-14T02:31:41.441Z,9.33
2023-05-14T02:34:08.424Z,9.27
2023-05-14T02:36:35.711Z,9.27
2023-05-14T02:39:02.830Z,9.27
2023-05-14T02:41:30.280Z,9.25
2023-05-14T02:43:57.459Z,9.20
2023-05-14T02:46:24.944Z,9.20
2023-05-14T02:48:51.868Z,9.14
2023-05-14T02:51:21.135Z,9.11
2023-05-14T02:53:48.254Z,9.10
2023-05-14T02:56:15.630Z,9.08
2023-05-14T02:58:42.663Z,9.03
2023-05-14T03:01:10.132Z,9.01
2023-05-14T03:03:38.195Z,8.99
2023-05-14T03:06:06.039Z,8.94
2023-05-14T03:08:33.082Z,8.93
2023-05-14T03:11:00.578Z,8.87
2023-05-14T03:13:27.660Z,8.83
2023-05-14T03:15:55.216Z,8.81
2023-05-14T03:18:23.115Z,8.80
2023-05-14T03:20:50.452Z,8.82
2023-05-14T03:23:17.558Z,8.80
2023-05-14T03:25:45.481Z,8.78
2023-05-14T03:28:12.427Z,8.73
2023-05-14T03:30:40.214Z,8.73
2023-05-14T03:33:07.376Z,8.74
2023-05-14T03:35:34.635Z,8.77
2023-05-14T03:38:01.672Z,8.78
2023-05-14T03:40:28.888Z,8.80
2023-05-14T03:42:56.110Z,8.79
2023-05-14T03:45:24.001Z,8.82
2023-05-14T03:47:51.042Z,8.86
2023-05-14T03:50:18.628Z,8.92
2023-05-14T03:52:46.022Z,8.97
2023-05-14T03:55:13.253Z,8.99
2023-05-14T03:57:40.567Z,9.03
2023-05-14T04:00:08.739Z,9.08
2023-05-14T04:02:43.884Z,9.12
2023-05-14T04:05:11.546Z,9.16
2023-05-14T04:07:38.588Z,9.18
2023-05-14T04:10:06.829Z,9.28
2023-05-14T04:12:35.795Z,9.37
2023-05-14T04:15:05.263Z,9.46
2023-05-14T04:17:33.960Z,9.57
2023-05-14T04:20:04.429Z,9.67
2023-05-14T04:22:32.015Z,9.76
2023-05-14T04:24:59.190Z,9.87
2023-05-14T04:27:26.778Z,9.99
2023-05-14T04:29:53.919Z,10.12
2023-05-14T04:32:21.343Z,10.25
2023-05-14T04:34:48.619Z,10.38
2023-05-14T04:37:15.791Z,10.49
2023-05-14T04:39:43.521Z,10.71
2023-05-14T04:42:10.834Z,10.88
2023-05-14T04:44:37.981Z,11.03
2023-05-14T04:47:05.359Z,11.14
2023-05-14T04:49:33.379Z,11.24
2023-05-14T04:52:01.534Z,11.36
2023-05-14T04:54:29.051Z,11.50
2023-05-14T04:56:55.991Z,11.64
2023-05-14T04:59:23.348Z,11.79
2023-05-14T05:01:51.602Z,11.88
2023-05-14T05:04:19.408Z,11.98
2023-05-14T05:06:46.545Z,12.14
2023-05-14T05:09:14.577Z,12.42
2023-05-14T05:11:41.737Z,12.64
2023-05-14T05:14:08.929Z,12.82
2023-05-14T05:16:36.011Z,12.90
2023-05-14T05:19:03.577Z,12.99
2023-05-14T05:21:31.732Z,13.17
2023-05-14T05:23:58.913Z,13.51
2023-05-14T05:26:27.186Z,13.94
2023-05-14T05:28:54.481Z,14.38
2023-05-14T05:31:21.434Z,14.77
2023-05-14T05:33:48.950Z,15.12
2023-05-14T05:36:15.973Z,15.40
2023-05-14T05:38:43.127Z,15.85
2023-05-14T05:41:10.419Z,15.97
2023-05-14T05:43:37.578Z,16.12
2023-05-14T05:46:04.482Z,16.42
2023-05-14T05:48:31.719Z,16.63
2023-05-14T05:50:58.682Z,16.83
2023-05-14T05:53:26.037Z,16.91
2023-05-14T05:55:53.002Z,17.06
2023-05-14T05:58:20.313Z,17.28
2023-05-14T06:00:47.535Z,17.50
2023-05-14T06:03:14.812Z,17.69
2023-05-14T06:05:41.943Z,17.88
2023-05-14T06:08:09.785Z,18.19
2023-05-14T06:10:37.578Z,18.57
2023-05-14T06:13:04.871Z,18.82
2023-05-14T06:15:31.732Z,18.89
2023-05-14T06:17:59.109Z,19.02
2023-05-14T06:20:26.398Z,19.42
2023-05-14T06:22:54.156Z,19.76
2023-05-14T06:25:21.239Z,20.04
2023-05-14T06:27:48.584Z,20.10
2023-05-14T06:30:15.972Z,20.33
2023-05-14T06:32:43.521Z,20.57
2023-05-14T06:35:10.772Z,20.57
2023-05-14T06:37:38.117Z,20.88
2023-05-14T06:40:06.665Z,21.26
2023-05-14T06:42:33.846Z,21.29
2023-05-14T06:45:00.773Z,21.42
2023-05-14T06:47:28.491Z,21.49
2023-05-14T06:49:58.534Z,21.89
2023-05-14T06:52:25.900Z,22.08
2023-05-14T06:54:55.417Z,22.29
2023-05-14T06:57:22.707Z,22.37
2023-05-14T06:59:49.641Z,22.39
2023-05-14T07:02:16.802Z,22.40
2023-05-14T07:04:43.946Z,22.50
2023-05-14T07:07:15.155Z,22.73
2023-05-14T07:09:42.445Z,22.69
2023-05-14T07:12:09.817Z,22.38
2023-05-14T07:14:36.800Z,22.37
2023-05-14T07:17:04.487Z,22.39
2023-05-14T07:19:31.500Z,22.60
2023-05-14T07:21:58.801Z,23.00
2023-05-14T07:24:25.884Z,23.24
2023-05-14T07:26:54.345Z,23.42
2023-05-14T07:29:22.276Z,23.63
2023-05-14T07:31:49.696Z,23.57
2023-05-14T07:34:16.858Z,23.44
2023-05-14T07:36:44.176Z,23.73
2023-05-14T07:39:11.214Z,24.16
2023-05-14T07:41:38.475Z,24.13
2023-05-14T07:44:05.754Z,24.17
2023-05-14T07:46:32.637Z,24.30
2023-05-14T07:48:59.959Z,24.36
2023-05-14T07:51:28.324Z,24.24
2023-05-14T07:53:56.075Z,24.75
2023-05-14T07:56:23.476Z,24.59
2023-05-14T07:58:51.712Z,24.85
2023-05-14T08:01:18.822Z,24.65
2023-05-14T08:03:46.581Z,24.93
2023-05-14T08:06:13.706Z,25.07
2023-05-14T08:08:41.164Z,25.12
2023-05-14T08:11:08.177Z,25.27
2023-05-14T08:13:35.436Z,25.54
2023-05-14T08:16:02.885Z,25.45
2023-05-14T08:18:30.172Z,25.91
2023-05-14T08:20:57.174Z,26.12
2023-05-14T08:23:24.507Z,26.19
2023-05-14T08:25:51.413Z,26.22
2023-05-14T08:28:18.672Z,25.98
2023-05-14T08:30:45.866Z,25.75
2023-05-14T08:33:13.267Z,25.95
2023-05-14T08:35:40.244Z,26.53
2023-05-14T08:38:07.533Z,26.44
2023-05-14T08:40:35.132Z,26.61
2023-05-14T08:43:03.013Z,26.57
2023-05-14T08:45:34.977Z,26.38
2023-05-14T08:48:08.908Z,26.48
2023-05-14T08:50:36.912Z,27.05
2023-05-14T08:53:04.135Z,27.33
2023-05-14T08:55:33.363Z,26.73
2023-05-14T08:58:04.339Z,27.53
2023-05-14T09:00:31.417Z,27.11
2023-05-14T09:03:00.371Z,26.99
2023-05-14T09:05:28.024Z,26.85
2023-05-14T09:07:55.500Z,27.38
2023-05-14T09:10:23.089Z,27.63
2023-05-14T09:12:51.616Z,27.76
2023-05-14T09:15:18.880Z,27.60
2023-05-14T09:17:48.540Z,28.22
2023-05-14T09:20:16.716Z,28.26
2023-05-14T09:22:43.941Z,27.45
2023-05-14T09:25:12.374Z,26.89
2023-05-14T09:27:39.786Z,27.30
2023-05-14T09:30:13.187Z,27.76
2023-05-14T09:32:46.309Z,27.52
2023-05-14T09:35:23.478Z,28.19
2023-05-14T09:37:55.468Z,28.07
2023-05-14T09:40:24.679Z,28.38
2023-05-14T09:42:52.257Z,28.68
2023-05-14T09:45:19.390Z,28.67
2023-05-14T09:47:47.162Z,27.94
2023-05-14T09:50:14.251Z,28.29
2023-05-14T09:52:42.532Z,27.95
2023-05-14T09:55:09.921Z,27.82
2023-05-14T09:57:37.508Z,28.20
2023-05-14T10:00:05.483Z,27.90
2023-05-14T10:02:38.296Z,27.77
2023-05-14T10:05:08.187Z,28.00
2023-05-14T10:07:47.958Z,27.76
2023-05-14T10:10:24.814Z,28.06
2023-05-14T10:12:58.093Z,27.90
2023-05-14T10:15:37.340Z,28.22
2023-05-14T10:18:16.005Z,28.16
2023-05-14T10:20:47.008Z,27.10
2023-05-14T10:23:14.508Z,27.42
2023-05-14T10:25:42.301Z,28.01
2023-05-14T10:28:10.584Z,28.03
2023-05-14T10:30:46.122Z,28.26
2023-05-14T10:33:16.595Z,28.21
2023-05-14T10:36:06.789Z,28.27
2023-05-14T10:38:36.883Z,28.41
2023-05-14T10:41:05.831Z,28.28
2023-05-14T10:43:41.075Z,28.36
2023-05-14T10:46:11.066Z,28.10
2023-05-14T10:48:42.802Z,28.38
2023-05-14T10:51:11.393Z,28.44
2023-05-14T10:53:43.168Z,28.26
2023-05-14T10:56:14.605Z,28.34
2023-05-14T10:58:45.842Z,28.52
2023-05-14T11:01:13.765Z,28.62
2023-05-14T11:03:46.834Z,28.14
2023-05-14T11:06:16.179Z,28.00
2023-05-14T11:08:46.213Z,28.28
2023-05-14T11:11:13.327Z,28.56
2023-05-14T11:13:42.599Z,28.00
2023-05-14T11:18:41.755Z,27.99
2023-05-14T11:21:08.960Z,28.35
2023-05-14T11:23:36.266Z,28.29
2023-05-14T11:26:03.506Z,28.04
2023-05-14T11:28:30.894Z,28.01
2023-05-14T11:30:57.896Z,28.38
2023-05-14T11:33:29.098Z,28.15
2023-05-14T11:35:56.160Z,28.09
2023-05-14T11:38:23.395Z,27.55
2023-05-14T11:40:56.767Z,27.49
2023-05-14T11:43:29.211Z,27.30
2023-05-14T11:45:56.807Z,26.82
2023-05-14T11:48:24.344Z,27.61
2023-05-14T11:50:52.950Z,27.24
2023-05-14T11:53:26.540Z,27.45
2023-05-14T11:55:59.884Z,27.17
2023-05-14T11:58:27.023Z,27.49
2023-05-14T12:00:56.050Z,27.65
2023-05-14T12:03:26.667Z,27.04
2023-05-14T12:06:02.434Z,27.29
2023-05-14T12:08:31.998Z,27.19
2023-05-14T12:11:00.867Z,27.49
2023-05-14T12:13:31.378Z,26.86
2023-05-14T12:16:02.393Z,26.97
2023-05-14T12:18:32.395Z,26.87
2023-05-14T12:21:04.802Z,26.17
2023-05-14T12:23:33.251Z,26.43
2023-05-14T12:26:09.048Z,26.91
2023-05-14T12:28:43.354Z,27.32
2023-05-14T12:31:10.802Z,27.22
2023-05-14T12:33:37.981Z,27.46
2023-05-14T12:36:20.549Z,27.45
2023-05-14T12:39:01.661Z,26.73
2023-05-14T12:41:32.104Z,27.00
2023-05-14T12:44:00.732Z,26.95
2023-05-14T12:46:28.321Z,27.43
2023-05-14T12:48:56.621Z,26.83
2023-05-14T12:51:23.949Z,26.46
2023-05-14T12:53:52.192Z,26.83
2023-05-14T12:56:19.478Z,27.10
2023-05-14T12:58:47.670Z,26.89
2023-05-14T13:01:14.742Z,27.15
2023-05-14T13:03:42.146Z,26.16
2023-05-14T13:06:09.308Z,26.40
2023-05-14T13:08:36.678Z,25.91
2023-05-14T13:11:03.851Z,26.39
2023-05-14T13:13:31.105Z,26.23
2023-05-14T13:15:58.113Z,25.60
2023-05-14T13:18:26.623Z,25.34
2023-05-14T13:20:54.212Z,25.89
2023-05-14T13:23:21.487Z,26.23
2023-05-14T13:25:50.060Z,26.42
2023-05-14T13:28:17.500Z,25.76
2023-05-14T13:31:06.238Z,25.65
2023-05-14T13:33:40.690Z,25.53
2023-05-14T13:36:09.515Z,25.13
2023-05-14T13:38:36.736Z,25.57
2023-05-14T13:41:04.235Z,25.42
2023-05-14T13:43:33.434Z,25.61
2023-05-14T13:46:01.507Z,25.58
2023-05-14T13:48:28.993Z,25.00
2023-05-14T13:50:56.169Z,24.38
2023-05-14T13:53:25.133Z,24.47
2023-05-14T13:56:00.858Z,25.05
2023-05-14T14:00:56.490Z,25.18
2023-05-14T14:03:23.847Z,24.62
2023-05-14T14:05:52.023Z,24.43
2023-05-14T14:08:24.006Z,24.79
2023-05-14T14:10:54.368Z,25.06
2023-05-14T14:13:22.806Z,24.43
2023-05-14T14:15:50.256Z,24.29
2023-05-14T14:18:18.126Z,24.01
2023-05-14T14:20:45.383Z,23.46
2023-05-14T14:23:12.673Z,23.15
2023-05-14T14:25:39.929Z,23.60
2023-05-14T14:28:07.099Z,23.89
2023-05-14T14:30:34.602Z,23.44
2023-05-14T14:33:02.066Z,23.42
2023-05-14T14:35:28.991Z,23.26
2023-05-14T14:37:56.174Z,23.35
2023-05-14T14:40:24.074Z,23.27
2023-05-14T14:42:51.304Z,23.24
2023-05-14T14:45:18.454Z,22.61
2023-05-14T14:47:46.865Z,23.12
2023-05-14T14:50:14.088Z,23.42
2023-05-14T14:52:45.771Z,23.02
2023-05-14T14:55:13.392Z,23.15
2023-05-14T14:57:40.654Z,23.29
2023-05-14T15:00:09.264Z,23.21
2023-05-14T15:02:41.840Z,22.88
2023-05-14T15:05:09.531Z,22.83
2023-05-14T15:07:36.679Z,22.89
2023-05-14T15:10:04.404Z,22.94
2023-05-14T15:12:31.653Z,22.79
2023-05-14T15:14:58.692Z,22.79
2023-05-14T15:17:26.543Z,22.83
2023-05-14T15:19:53.577Z,22.77
2023-05-14T15:22:21.381Z,22.76
2023-05-14T15:24:48.715Z,22.42
2023-05-14T15:27:16.210Z,22.50
2023-05-14T15:29:43.168Z,22.45
2023-05-14T15:32:10.829Z,22.40
2023-05-14T15:34:38.017Z,22.47
2023-05-14T15:37:05.856Z,22.11
2023-05-14T15:39:32.863Z,22.17
2023-05-14T15:42:00.211Z,22.09
2023-05-14T15:44:27.147Z,21.99
2023-05-14T15:46:54.512Z,21.89
2023-05-14T15:49:21.775Z,21.65
2023-05-14T15:51:49.188Z,21.83
2023-05-14T15:54:16.175Z,21.56
2023-05-14T15:56:43.425Z,22.00
2023-05-14T15:59:10.520Z,21.58
2023-05-14T16:01:37.773Z,21.67
2023-05-14T16:04:04.851Z,21.70
2023-05-14T16:06:35.052Z,21.49
2023-05-14T16:09:03.115Z,21.52
2023-05-14T16:11:30.497Z,21.61
2023-05-14T16:13:58.474Z,21.11
2023-05-14T16:16:25.904Z,21.35
2023-05-14T16:18:52.868Z,21.29
2023-05-14T16:21:20.287Z,21.56
2023-05-14T16:23:47.439Z,21.52
2023-05-14T16:26:14.716Z,21.60
2023-05-14T16:28:42.702Z,21.29
2023-05-14T16:31:10.239Z,21.25
2023-05-14T16:33:37.381Z,21.17
2023-05-14T16:36:04.904Z,21.38
2023-05-14T16:38:31.904Z,21.20
2023-05-14T16:40:59.447Z,21.29
2023-05-14T16:43:26.407Z,21.38
2023-05-14T16:45:53.725Z,21.19
2023-05-14T16:48:23.777Z,21.37
2023-05-14T16:50:51.067Z,21.42
2023-05-14T16:53:18.104Z,21.43
2023-05-14T16:55:45.533Z,21.45
2023-05-14T16:58:12.660Z,21.43
2023-05-14T17:00:40.064Z,21.45
2023-05-14T17:03:07.189Z,21.44
2023-05-14T17:05:34.984Z,21.41
2023-05-14T17:08:02.282Z,21.38
2023-05-14T17:10:30.210Z,21.31
2023-05-14T17:12:57.127Z,21.24
2023-05-14T17:15:42.502Z,21.25
2023-05-14T17:18:11.807Z,21.20
2023-05-14T17:20:39.204Z,21.15
2023-05-14T17:23:06.181Z,21.11
2023-05-14T17:25:33.518Z,21.01
2023-05-14T17:28:00.554Z,21.04
2023-05-14T17:30:27.736Z,21.02
2023-05-14T17:32:54.764Z,20.97
2023-05-14T17:35:22.182Z,20.90
2023-05-14T17:37:49.630Z,20.70
2023-05-14T17:40:17.016Z,20.60
2023-05-14T17:42:45.414Z,20.28
2023-05-14T17:45:13.458Z,20.39
2023-05-14T17:47:40.458Z,20.37
2023-05-14T17:50:08.628Z,20.32
2023-05-14T17:52:35.956Z,20.26
2023-05-14T17:55:03.738Z,20.05
2023-05-14T17:57:30.834Z,19.34
2023-05-14T17:59:58.055Z,19.44
2023-05-14T18:02:26.050Z,19.07
2023-05-14T18:04:53.250Z,18.89
2023-05-14T18:07:21.520Z,18.68
2023-05-14T18:09:48.900Z,18.52
2023-05-14T18:12:15.903Z,18.43
2023-05-14T18:14:45.386Z,18.40
2023-05-14T18:17:12.764Z,18.49
2023-05-14T18:19:40.962Z,18.68
2023-05-14T18:22:08.099Z,18.66
2023-05-14T18:24:35.299Z,18.59
2023-05-14T18:27:02.437Z,18.68
2023-05-14T18:29:29.868Z,18.66
2023-05-14T18:31:56.833Z,18.65
2023-05-14T18:34:24.288Z,18.67
2023-05-14T18:36:51.405Z,18.73
2023-05-14T18:39:19.163Z,18.78
2023-05-14T18:41:46.218Z,18.81
2023-05-14T18:44:13.716Z,18.81
2023-05-14T18:46:40.767Z,18.79
2023-05-14T18:49:08.241Z,18.65
2023-05-14T18:51:35.231Z,18.59
2023-05-14T18:54:05.873Z,18.57
2023-05-14T18:56:33.009Z,18.48
2023-05-14T18:59:00.233Z,18.39
2023-05-14T19:01:28.050Z,18.36
2023-05-14T19:03:56.104Z,18.39
2023-05-14T19:06:23.254Z,18.41
2023-05-14T19:08:50.452Z,18.41
2023-05-14T19:11:18.125Z,18.41
2023-05-14T19:13:46.745Z,18.43
2023-05-14T19:16:13.903Z,18.10
2023-05-14T19:18:41.645Z,18.08
2023-05-14T19:21:08.761Z,18.18
2023-05-14T19:23:35.962Z,18.19
2023-05-14T19:26:03.704Z,18.16
2023-05-14T19:28:30.982Z,17.84
2023-05-14T19:30:58.176Z,17.79
2023-05-14T19:33:26.034Z,17.90
2023-05-14T19:35:53.280Z,17.90
2023-05-14T19:38:20.864Z,17.89
2023-05-14T19:40:47.889Z,17.94
2023-05-14T19:43:15.143Z,17.97
2023-05-14T19:45:42.630Z,17.93
2023-05-14T19:48:10.295Z,17.92
2023-05-14T19:50:37.411Z,17.89
2023-05-14T19:53:05.118Z,17.86
2023-05-14T19:55:32.758Z,17.84
2023-05-14T19:57:59.928Z,17.78
2023-05-14T20:00:27.461Z,17.81
2023-05-14T20:02:55.257Z,17.74
2023-05-14T20:05:22.322Z,17.68
2023-05-14T20:07:50.073Z,17.65
2023-05-14T20:10:17.030Z,17.57
2023-05-14T20:12:44.484Z,17.53
2023-05-14T20:15:11.660Z,17.47
2023-05-14T20:17:39.605Z,17.42
2023-05-14T20:20:10.071Z,17.34
2023-05-14T20:22:38.231Z,17.31
2023-05-14T20:25:06.752Z,17.27
2023-05-14T20:27:34.044Z,17.19
2023-05-14T20:30:01.151Z,17.08
2023-05-14T20:32:28.629Z,16.99
2023-05-14T20:34:55.730Z,16.94
2023-05-14T20:37:23.974Z,16.87
2023-05-14T20:39:50.933Z,16.78
2023-05-14T20:42:18.170Z,16.69
2023-05-14T20:44:45.135Z,16.67
2023-05-14T20:47:16.287Z,16.63
2023-05-14T20:49:43.411Z,16.56
2023-05-14T20:52:10.669Z,16.49
2023-05-14T20:54:37.571Z,16.40
2023-05-14T20:57:05.216Z,16.36
2023-05-14T20:59:32.222Z,16.09
2023-05-14T21:01:59.604Z,16.17
2023-05-14T21:04:26.839Z,15.93
2023-05-14T21:06:54.464Z,15.93
2023-05-14T21:09:23.137Z,15.97
2023-05-14T21:11:50.674Z,15.99
2023-05-14T21:14:17.620Z,16.12
2023-05-14T21:16:45.324Z,15.81
2023-05-14T21:19:13.382Z,15.86
2023-05-14T21:21:42.660Z,15.83
2023-05-14T21:24:09.679Z,15.89
2023-05-14T21:26:37.594Z,15.94
2023-05-14T21:29:04.632Z,15.69
2023-05-14T21:31:31.892Z,15.61
2023-05-14T21:33:58.849Z,15.52
2023-05-14T21:36:26.234Z,15.55
2023-05-14T21:38:53.904Z,15.51
2023-05-14T21:41:21.652Z,15.58
2023-05-14T21:43:48.498Z,15.55
2023-05-14T21:46:16.277Z,15.36
2023-05-14T21:48:43.551Z,15.50
2023-05-14T21:51:11.058Z,15.43
2023-05-14T21:53:38.071Z,15.45
2023-05-14T21:56:06.081Z,15.43
2023-05-14T21:58:33.055Z,15.36
2023-05-14T22:01:00.403Z,15.42
2023-05-14T22:03:29.507Z,15.16
2023-05-14T22:05:57.180Z,14.85
2023-05-14T22:08:24.378Z,14.89
2023-05-14T22:10:51.666Z,14.86
2023-05-14T22:13:18.634Z,14.75
2023-05-14T22:15:46.059Z,14.58
2023-05-14T22:18:15.304Z,14.82
2023-05-14T22:20:43.064Z,14.79
2023-05-14T22:23:09.912Z,14.91
2023-05-14T22:25:37.301Z,14.87
2023-05-14T22:28:04.409Z,14.75
2023-05-14T22:30:31.540Z,14.65
2023-05-14T22:32:58.501Z,14.28
2023-05-14T22:35:25.976Z,14.35
2023-05-14T22:37:53.197Z,14.51
2023-05-14T22:40:20.549Z,14.50
2023-05-14T22:42:47.390Z,14.49
2023-05-14T22:45:14.767Z,14.32
2023-05-14T22:47:41.789Z,14.08
2023-05-14T22:50:11.433Z,14.24
2023-05-14T22:52:40.080Z,14.45
2023-05-14T22:55:08.380Z,14.42
2023-05-14T22:57:35.522Z,14.34
2023-05-14T23:00:04.545Z,14.18
2023-05-14T23:02:31.604Z,13.99
2023-05-14T23:05:01.910Z,14.18
2023-05-14T23:07:28.930Z,14.15
2023-05-14T23:09:56.161Z,14.35
2023-05-14T23:12:23.074Z,14.35
2023-05-14T23:14:50.292Z,14.30
2023-05-14T23:17:17.673Z,14.30
2023-05-14T23:19:44.842Z,14.08
2023-05-14T23:22:12.444Z,14.19
2023-05-14T23:24:39.699Z,14.03
2023-05-14T23:27:06.964Z,14.24
2023-05-14T23:29:34.164Z,14.12
2023-05-14T23:32:01.158Z,14.33
2023-05-14T23:34:28.497Z,14.20
2023-05-14T23:36:55.841Z,14.31
2023-05-14T23:39:23.169Z,14.35
2023-05-14T23:41:50.169Z,14.12
2023-05-14T23:44:17.305Z,14.08
2023-05-14T23:46:44.442Z,14.22
2023-05-14T23:49:12.494Z,14.16
2023-05-14T23:51:39.383Z,13.87
2023-05-14T23:54:06.632Z,13.93
2023-05-14T23:56:34.300Z,14.19
2023-05-14T23:59:01.745Z,14.21
